createdAt,value
2024-01-09T00:00:17.230Z,66.400000
2024-01-09T00:05:19.380Z,67.866667
2024-01-09T00:10:21.005Z,69.266667
2024-01-09T00:15:23.122Z,70.000000
2024-01-09T00:20:25.166Z,71.000000
2024-01-09T00:25:26.964Z,72.400000
2024-01-09T00:30:28.902Z,73.266667
2024-01-09T00:35:30.935Z,74.000000
2024-01-09T00:40:32.919Z,74.666667
2024-01-09T00:45:37.015Z,75.000000
2024-01-09T00:50:16.712Z,75.200000
2024-01-09T00:55:18.680Z,76.000000
2024-01-09T01:00:20.738Z,76.133333
2024-01-09T01:05:23.195Z,77.000000
2024-01-09T01:10:24.491Z,77.000000
2024-01-09T01:15:26.758Z,77.600000
2024-01-09T01:20:29.021Z,78.733333
2024-01-09T01:25:31.058Z,79.400000
2024-01-09T01:30:33.037Z,80.000000
2024-01-09T01:35:35.171Z,80.000000
2024-01-09T01:40:16.691Z,80.000000
2024-01-09T01:45:18.748Z,80.133333
2024-01-09T01:50:21.782Z,81.000000
2024-01-09T01:55:23.807Z,81.142857
2024-01-09T02:00:25.700Z,82.000000
2024-01-09T02:05:27.834Z,82.533333
2024-01-09T02:10:29.584Z,83.000000
2024-01-09T02:15:31.559Z,83.000000
2024-01-09T02:20:33.733Z,83.000000
2024-01-09T02:25:35.588Z,83.600000
2024-01-09T02:30:17.429Z,84.000000
2024-01-09T02:35:19.123Z,84.000000
2024-01-09T02:40:21.107Z,84.000000
2024-01-09T02:45:23.078Z,84.000000
2024-01-09T02:50:25.040Z,84.000000
2024-01-09T02:55:26.936Z,84.000000
2024-01-09T03:00:28.666Z,84.000000
2024-01-09T03:05:33.877Z,84.000000
2024-01-09T03:10:33.702Z,84.000000
2024-01-09T03:15:35.662Z,84.933333
2024-01-09T03:20:17.315Z,85.000000
2024-01-09T03:25:19.404Z,85.000000
2024-01-09T03:30:21.179Z,85.400000
2024-01-09T03:35:23.205Z,86.000000
2024-01-09T03:40:25.179Z,86.600000
2024-01-09T03:45:27.124Z,87.000000
2024-01-09T03:50:29.852Z,87.000000
2024-01-09T03:55:32.528Z,87.000000
2024-01-09T04:00:35.286Z,87.000000
2024-01-09T04:05:17.447Z,87.000000
2024-01-09T04:10:19.428Z,87.200000
2024-01-09T04:15:21.027Z,88.000000
2024-01-09T04:20:23.349Z,88.000000
2024-01-09T04:25:25.126Z,87.600000
2024-01-09T04:30:27.037Z,87.000000
2024-01-09T04:35:28.909Z,86.533333
2024-01-09T04:40:30.906Z,86.000000
2024-01-09T04:45:33.181Z,86.000000
2024-01-09T04:50:35.341Z,86.000000
2024-01-09T04:55:17.432Z,86.000000
2024-01-09T05:00:19.374Z,86.000000
2024-01-09T05:05:22.069Z,86.000000
2024-01-09T05:10:23.922Z,86.000000
2024-01-09T05:15:25.891Z,86.000000
2024-01-09T05:20:27.896Z,85.600000
2024-01-09T05:25:29.785Z,85.000000
2024-01-09T05:30:31.869Z,85.000000
2024-01-09T05:35:33.962Z,85.000000
2024-01-09T05:40:35.867Z,85.000000
2024-01-09T05:45:17.608Z,85.000000
2024-01-09T05:50:19.618Z,85.466667
2024-01-09T05:55:21.565Z,86.000000
2024-01-09T06:00:23.496Z,86.000000
2024-01-09T06:05:26.680Z,86.066667
2024-01-09T06:10:29.308Z,86.066667
2024-01-09T06:15:32.451Z,85.333333
2024-01-09T06:20:35.497Z,83.733333
2024-01-09T06:25:18.251Z,81.600000
2024-01-09T06:30:21.020Z,79.866667
2024-01-09T06:35:23.688Z,78.428571
2024-01-09T06:40:26.256Z,78.000000
2024-01-09T06:45:28.457Z,78.600000
2024-01-09T06:50:37.314Z,79.000000
2024-01-09T06:55:32.548Z,79.066667
2024-01-09T07:00:36.110Z,79.933333
2024-01-09T07:05:18.252Z,79.000000
2024-01-09T07:10:19.739Z,77.066667
2024-01-09T07:15:22.362Z,76.400000
2024-01-09T07:20:24.222Z,77.357143
2024-01-09T07:25:26.211Z,79.666667
2024-01-09T07:30:28.046Z,81.600000
2024-01-09T07:35:30.136Z,83.000000
2024-01-09T07:40:32.398Z,83.733333
2024-01-09T07:45:34.230Z,84.000000
2024-01-09T07:50:16.433Z,84.533333
2024-01-09T07:55:18.539Z,85.000000
2024-01-09T08:00:21.267Z,85.000000
2024-01-09T08:05:24.191Z,85.000000
2024-01-09T08:10:26.639Z,85.000000
2024-01-09T08:15:29.902Z,85.000000
2024-01-09T08:20:32.635Z,84.866667
2024-01-09T08:25:35.539Z,83.400000
2024-01-09T08:30:18.208Z,81.200000
2024-01-09T08:35:20.065Z,80.000000
2024-01-09T08:40:22.078Z,81.200000
2024-01-09T08:45:24.001Z,82.571429
2024-01-09T08:50:26.032Z,83.666667
2024-01-09T08:55:28.238Z,84.866667
2024-01-09T09:00:30.175Z,85.066667
2024-01-09T09:05:33.633Z,86.000000
2024-01-09T09:10:34.083Z,86.000000
2024-01-09T09:15:15.907Z,86.000000
2024-01-09T09:20:17.850Z,86.000000
2024-01-09T09:25:19.899Z,86.000000
2024-01-09T09:30:21.948Z,86.000000
2024-01-09T09:35:23.872Z,86.000000
2024-01-09T09:40:25.991Z,86.000000
2024-01-09T09:45:27.821Z,85.133333
2024-01-09T09:50:29.968Z,84.733333
2024-01-09T09:55:31.956Z,84.000000
2024-01-09T10:00:33.939Z,84.200000
2024-01-09T10:05:35.895Z,85.000000
2024-01-09T10:10:17.593Z,85.000000
2024-01-09T10:15:19.540Z,85.000000
2024-01-09T10:20:22.823Z,85.000000
2024-01-09T10:25:23.464Z,85.000000
2024-01-09T10:30:25.311Z,85.000000
2024-01-09T10:35:27.191Z,85.000000
2024-01-09T10:40:29.233Z,84.066667
2024-01-09T10:45:31.252Z,84.000000
2024-01-09T10:50:33.141Z,84.000000
2024-01-09T10:55:35.050Z,83.133333
2024-01-09T11:00:17.170Z,81.733333
2024-01-09T11:05:19.227Z,80.200000
2024-01-09T11:10:20.919Z,79.333333
2024-01-09T11:15:22.426Z,79.000000
2024-01-09T11:20:24.316Z,79.266667
2024-01-09T11:25:26.216Z,80.000000
2024-01-09T11:30:28.284Z,80.800000
2024-01-09T11:35:30.218Z,81.800000
2024-01-09T11:40:32.225Z,82.733333
2024-01-09T11:45:33.963Z,83.266667
2024-01-09T11:50:36.073Z,84.000000
2024-01-09T11:55:17.826Z,84.133333
2024-01-09T12:00:19.800Z,85.000000
2024-01-09T12:05:21.658Z,85.000000
2024-01-09T12:10:30.764Z,85.000000
2024-01-09T12:15:25.274Z,85.000000
2024-01-09T12:20:27.474Z,85.000000
2024-01-09T12:25:29.276Z,84.800000
2024-01-09T12:30:31.108Z,84.000000
2024-01-09T12:35:33.075Z,83.400000
2024-01-09T12:40:35.095Z,82.400000
2024-01-09T12:45:16.867Z,81.000000
2024-01-09T12:50:18.814Z,81.000000
2024-01-09T12:55:20.868Z,81.000000
2024-01-09T13:00:22.817Z,81.000000
2024-01-09T13:05:25.250Z,81.000000
2024-01-09T13:10:27.175Z,80.066667
2024-01-09T13:15:29.385Z,80.000000
2024-01-09T13:20:31.929Z,80.533333
2024-01-09T13:25:33.703Z,79.600000
2024-01-09T13:30:48.711Z,78.266667
2024-01-09T13:35:17.839Z,77.600000
2024-01-09T13:40:20.877Z,77.000000
2024-01-09T13:45:24.008Z,77.000000
2024-01-09T13:51:47.588Z,77.333333
2024-01-09T13:51:51.653Z,77.333333
2024-01-09T13:55:29.193Z,78.000000
2024-01-09T14:00:31.914Z,78.000000
2024-01-09T14:05:35.350Z,78.600000
2024-01-09T14:10:17.408Z,78.066667
2024-01-09T14:15:19.513Z,77.533333
2024-01-09T14:20:21.562Z,77.000000
2024-01-09T14:25:24.700Z,77.000000
2024-01-09T14:30:27.397Z,77.000000
2024-01-09T14:35:29.749Z,77.000000
2024-01-09T14:40:31.924Z,76.733333
2024-01-09T14:45:33.814Z,76.800000
2024-01-09T14:50:35.756Z,77.666667
2024-01-09T14:55:17.722Z,78.000000
2024-01-09T15:00:19.585Z,77.733333
2024-01-09T15:05:21.936Z,76.866667
2024-01-09T15:10:23.529Z,76.142857
2024-01-09T15:15:25.656Z,74.533333
2024-01-09T15:20:27.635Z,74.000000
2024-01-09T15:25:29.366Z,73.533333
2024-01-09T15:30:31.424Z,73.000000
2024-01-09T15:35:33.392Z,73.000000
2024-01-09T15:40:35.263Z,73.000000
2024-01-09T15:45:16.903Z,72.200000
2024-01-09T15:50:18.934Z,72.000000
2024-01-09T15:55:20.781Z,72.000000
2024-01-09T16:00:22.734Z,72.000000
2024-01-09T16:05:24.663Z,72.000000
2024-01-09T16:10:26.433Z,72.000000
2024-01-09T16:15:28.794Z,72.000000
2024-01-09T16:20:31.228Z,72.000000
2024-01-09T16:25:33.281Z,72.000000
2024-01-09T16:30:35.079Z,72.000000
2024-01-09T16:35:16.847Z,71.133333
2024-01-09T16:40:18.708Z,70.733333
2024-01-09T16:45:20.381Z,69.200000
2024-01-09T16:50:22.637Z,69.000000
2024-01-09T16:55:24.997Z,69.000000
2024-01-09T17:00:26.752Z,69.000000
2024-01-09T17:05:28.711Z,69.000000
2024-01-09T17:10:30.622Z,69.000000
2024-01-09T17:15:32.628Z,69.400000
2024-01-09T17:20:34.572Z,69.400000
2024-01-09T17:25:16.392Z,68.000000
2024-01-09T17:30:18.287Z,68.266667
2024-01-09T17:35:20.338Z,69.000000
2024-01-09T17:40:22.075Z,68.214286
2024-01-09T17:45:24.004Z,66.466667
2024-01-09T17:50:25.897Z,66.466667
2024-01-09T17:55:28.253Z,66.000000
2024-01-09T18:00:32.182Z,65.200000
2024-01-09T18:05:32.275Z,65.333333
2024-01-09T18:10:34.085Z,64.200000
2024-01-09T18:15:35.896Z,64.333333
2024-01-09T18:20:17.854Z,63.133333
2024-01-09T18:25:19.819Z,63.666667
2024-01-09T18:30:21.737Z,64.200000
2024-01-09T18:35:23.522Z,64.428571
2024-01-09T18:40:25.554Z,64.933333
2024-01-09T18:45:27.267Z,65.533333
2024-01-09T18:50:29.196Z,65.400000
2024-01-09T18:55:31.338Z,66.200000
2024-01-09T19:00:33.279Z,67.000000
2024-01-09T19:05:35.317Z,67.000000
2024-01-09T19:10:16.868Z,67.933333
2024-01-09T19:15:19.468Z,67.866667
2024-01-09T19:20:21.503Z,67.800000
2024-01-09T19:25:23.835Z,68.000000
2024-01-09T19:30:27.338Z,68.200000
2024-01-09T19:35:28.703Z,68.066667
2024-01-09T19:40:31.712Z,68.533333
2024-01-09T19:45:34.885Z,67.866667
2024-01-09T19:50:17.590Z,66.400000
2024-01-09T19:55:20.435Z,65.000000
2024-01-09T20:00:22.998Z,64.142857
2024-01-09T20:05:24.860Z,63.333333
2024-01-09T20:10:26.973Z,63.133333
2024-01-09T20:15:28.977Z,62.933333
2024-01-09T20:20:31.721Z,62.933333
2024-01-09T20:25:35.024Z,62.000000
2024-01-09T20:30:17.280Z,60.533333
2024-01-09T20:35:19.836Z,61.000000
2024-01-09T20:40:22.899Z,66.500000
2024-01-09T20:45:26.683Z,66.266667
2024-01-09T20:50:27.805Z,64.866667
2024-01-09T20:55:30.508Z,64.266667
2024-01-09T21:00:32.474Z,63.666667
2024-01-09T21:05:35.232Z,64.000000
2024-01-09T21:10:18.103Z,64.200000
2024-01-09T21:15:23.540Z,64.000000
2024-01-09T21:20:23.455Z,64.428571
2024-01-09T21:25:25.603Z,63.466667
2024-01-09T21:30:28.740Z,60.200000
2024-01-09T21:35:31.071Z,57.266667
2024-01-09T21:40:38.025Z,56.466667
2024-01-09T21:45:16.053Z,54.600000
2024-01-09T21:50:18.496Z,53.600000
2024-01-09T21:55:20.738Z,53.600000
2024-01-09T22:00:22.908Z,53.785714
2024-01-09T22:05:24.804Z,54.200000
2024-01-09T22:10:26.779Z,55.266667
2024-01-09T22:15:28.819Z,54.066667
2024-01-09T22:20:31.454Z,55.400000
2024-01-09T22:25:35.076Z,54.666667
2024-01-09T22:30:17.322Z,54.200000
2024-01-09T22:35:19.808Z,54.266667
2024-01-09T22:40:22.175Z,56.142857
2024-01-09T22:45:24.398Z,56.000000
2024-01-09T22:50:26.361Z,55.800000
2024-01-09T22:55:28.610Z,53.600000
2024-01-09T23:00:30.491Z,53.133333
2024-01-09T23:05:32.646Z,53.533333
2024-01-09T23:10:34.747Z,53.333333
2024-01-09T23:15:16.685Z,54.066667
2024-01-09T23:20:18.882Z,54.266667
2024-01-09T23:25:21.142Z,53.066667
2024-01-09T23:30:23.369Z,53.500000
2024-01-09T23:35:25.841Z,54.066667
2024-01-09T23:40:27.354Z,55.400000
2024-01-09T23:45:29.270Z,56.133333
2024-01-09T23:50:31.366Z,57.533333
2024-01-09T23:55:33.459Z,58.600000
